sensor_id;sensor_type;location;lat;lon;timestamp;P1;durP1;ratioP1;P2;durP2;ratioP2
13805;SDS011;6974;53.606;9.872;2023-11-19T00:00:58;7.67;;;6.43;;
13805;SDS011;6974;53.606;9.872;2023-11-19T00:03:26;8.13;;;6.03;;
13805;SDS011;6974;53.606;9.872;2023-11-19T00:05:53;7.87;;;6.27;;
13805;SDS011;6974;53.606;9.872;2023-11-19T00:08:20;8.63;;;7.43;;
13805;SDS011;6974;53.606;9.872;2023-11-19T00:10:51;6.77;;;5.87;;
13805;SDS011;6974;53.606;9.872;2023-11-19T00:13:18;8.57;;;6.70;;
13805;SDS011;6974;53.606;9.872;2023-11-19T00:15:45;7.13;;;6.43;;
13805;SDS011;6974;53.606;9.872;2023-11-19T00:18:12;7.20;;;6.10;;
13805;SDS011;6974;53.606;9.872;2023-11-19T00:20:39;6.77;;;5.63;;
13805;SDS011;6974;53.606;9.872;2023-11-19T00:23:06;7.40;;;6.60;;
13805;SDS011;6974;53.606;9.872;2023-11-19T00:25:33;6.13;;;5.53;;
13805;SDS011;6974;53.606;9.872;2023-11-19T00:28:02;6.00;;;5.37;;
13805;SDS011;6974;53.606;9.872;2023-11-19T00:30:29;5.67;;;5.07;;
13805;SDS011;6974;53.606;9.872;2023-11-19T00:32:56;5.37;;;4.67;;
13805;SDS011;6974;53.606;9.872;2023-11-19T00:35:23;5.40;;;4.77;;
13805;SDS011;6974;53.606;9.872;2023-11-19T00:37:50;5.30;;;4.80;;
13805;SDS011;6974;53.606;9.872;2023-11-19T00:40:18;5.07;;;4.60;;
13805;SDS011;6974;53.606;9.872;2023-11-19T00:42:48;4.40;;;4.00;;
13805;SDS011;6974;53.606;9.872;2023-11-19T00:45:16;5.17;;;4.67;;
13805;SDS011;6974;53.606;9.872;2023-11-19T00:47:43;4.70;;;4.30;;
13805;SDS011;6974;53.606;9.872;2023-11-19T00:50:10;5.10;;;4.30;;
13805;SDS011;6974;53.606;9.872;2023-11-19T00:52:37;4.23;;;3.83;;
13805;SDS011;6974;53.606;9.872;2023-11-19T00:55:05;4.20;;;3.80;;
13805;SDS011;6974;53.606;9.872;2023-11-19T00:57:32;4.13;;;3.77;;
13805;SDS011;6974;53.606;9.872;2023-11-19T00:59:59;3.70;;;3.40;;
13805;SDS011;6974;53.606;9.872;2023-11-19T01:02:27;4.40;;;4.00;;
13805;SDS011;6974;53.606;9.872;2023-11-19T01:04:54;3.80;;;3.50;;
13805;SDS011;6974;53.606;9.872;2023-11-19T01:07:21;4.33;;;3.93;;
13805;SDS011;6974;53.606;9.872;2023-11-19T01:09:49;3.97;;;3.50;;
13805;SDS011;6974;53.606;9.872;2023-11-19T01:12:16;4.40;;;3.63;;
13805;SDS011;6974;53.606;9.872;2023-11-19T01:14:43;4.27;;;3.87;;
13805;SDS011;6974;53.606;9.872;2023-11-19T01:17:10;4.00;;;3.60;;
13805;SDS011;6974;53.606;9.872;2023-11-19T01:19:38;3.60;;;3.30;;
13805;SDS011;6974;53.606;9.872;2023-11-19T01:22:05;3.30;;;3.00;;
13805;SDS011;6974;53.606;9.872;2023-11-19T01:24:31;3.93;;;3.27;;
13805;SDS011;6974;53.606;9.872;2023-11-19T01:26:59;3.93;;;3.63;;
13805;SDS011;6974;53.606;9.872;2023-11-19T01:29:26;3.13;;;2.83;;
13805;SDS011;6974;53.606;9.872;2023-11-19T01:31:52;3.03;;;2.73;;
13805;SDS011;6974;53.606;9.872;2023-11-19T01:34:19;2.73;;;2.53;;
13805;SDS011;6974;53.606;9.872;2023-11-19T01:36:47;3.43;;;2.83;;
13805;SDS011;6974;53.606;9.872;2023-11-19T01:39:14;2.93;;;2.70;;
13805;SDS011;6974;53.606;9.872;2023-11-19T01:41:42;3.27;;;2.80;;
13805;SDS011;6974;53.606;9.872;2023-11-19T01:44:09;2.60;;;2.40;;
13805;SDS011;6974;53.606;9.872;2023-11-19T01:46:37;2.83;;;2.63;;
13805;SDS011;6974;53.606;9.872;2023-11-19T01:49:06;3.00;;;2.70;;
13805;SDS011;6974;53.606;9.872;2023-11-19T01:51:34;2.63;;;2.43;;
13805;SDS011;6974;53.606;9.872;2023-11-19T01:54:03;2.50;;;2.30;;
13805;SDS011;6974;53.606;9.872;2023-11-19T01:56:30;2.50;;;2.20;;
13805;SDS011;6974;53.606;9.872;2023-11-19T01:58:58;2.57;;;2.37;;
13805;SDS011;6974;53.606;9.872;2023-11-19T02:01:26;2.20;;;2.00;;
13805;SDS011;6974;53.606;9.872;2023-11-19T02:03:54;2.33;;;2.13;;
13805;SDS011;6974;53.606;9.872;2023-11-19T02:06:23;1.70;;;1.60;;
13805;SDS011;6974;53.606;9.872;2023-11-19T02:08:51;2.00;;;1.90;;
13805;SDS011;6974;53.606;9.872;2023-11-19T02:11:20;4.23;;;1.70;;
13805;SDS011;6974;53.606;9.872;2023-11-19T02:13:46;1.70;;;1.60;;
13805;SDS011;6974;53.606;9.872;2023-11-19T02:16:13;1.60;;;1.50;;
13805;SDS011;6974;53.606;9.872;2023-11-19T02:18:40;1.73;;;1.63;;
13805;SDS011;6974;53.606;9.872;2023-11-19T02:21:08;2.00;;;1.80;;
13805;SDS011;6974;53.606;9.872;2023-11-19T02:23:35;1.80;;;1.60;;
13805;SDS011;6974;53.606;9.872;2023-11-19T02:26:03;1.77;;;1.50;;
13805;SDS011;6974;53.606;9.872;2023-11-19T02:28:40;2.33;;;1.70;;
13805;SDS011;6974;53.606;9.872;2023-11-19T02:31:08;1.60;;;1.50;;
13805;SDS011;6974;53.606;9.872;2023-11-19T02:33:35;1.80;;;1.70;;
13805;SDS011;6974;53.606;9.872;2023-11-19T02:36:02;2.37;;;1.70;;
13805;SDS011;6974;53.606;9.872;2023-11-19T02:38:29;2.30;;;2.10;;
13805;SDS011;6974;53.606;9.872;2023-11-19T02:40:56;1.77;;;1.67;;
13805;SDS011;6974;53.606;9.872;2023-11-19T02:43:23;2.90;;;1.90;;
13805;SDS011;6974;53.606;9.872;2023-11-19T02:45:51;2.50;;;1.60;;
13805;SDS011;6974;53.606;9.872;2023-11-19T02:48:20;1.80;;;1.70;;
13805;SDS011;6974;53.606;9.872;2023-11-19T02:50:47;1.80;;;1.70;;
13805;SDS011;6974;53.606;9.872;2023-11-19T02:53:14;2.10;;;1.90;;
13805;SDS011;6974;53.606;9.872;2023-11-19T02:55:41;1.90;;;1.80;;
13805;SDS011;6974;53.606;9.872;2023-11-19T02:58:13;2.27;;;2.07;;
13805;SDS011;6974;53.606;9.872;2023-11-19T03:00:48;1.97;;;1.80;;
13805;SDS011;6974;53.606;9.872;2023-11-19T03:03:23;2.40;;;2.20;;
13805;SDS011;6974;53.606;9.872;2023-11-19T03:05:53;2.43;;;2.00;;
13805;SDS011;6974;53.606;9.872;2023-11-19T03:08:20;2.63;;;2.43;;
13805;SDS011;6974;53.606;9.872;2023-11-19T03:10:48;2.63;;;2.43;;
13805;SDS011;6974;53.606;9.872;2023-11-19T03:13:15;3.63;;;2.37;;
13805;SDS011;6974;53.606;9.872;2023-11-19T03:15:43;2.27;;;2.07;;
13805;SDS011;6974;53.606;9.872;2023-11-19T03:18:10;2.47;;;2.30;;
13805;SDS011;6974;53.606;9.872;2023-11-19T03:20:38;2.77;;;2.57;;
13805;SDS011;6974;53.606;9.872;2023-11-19T03:23:05;2.53;;;2.33;;
13805;SDS011;6974;53.606;9.872;2023-11-19T03:25:31;2.77;;;2.57;;
13805;SDS011;6974;53.606;9.872;2023-11-19T03:27:59;2.70;;;2.50;;
13805;SDS011;6974;53.606;9.872;2023-11-19T03:30:26;2.83;;;2.60;;
13805;SDS011;6974;53.606;9.872;2023-11-19T03:32:54;2.70;;;2.50;;
13805;SDS011;6974;53.606;9.872;2023-11-19T03:35:21;3.90;;;2.50;;
13805;SDS011;6974;53.606;9.872;2023-11-19T03:37:49;2.67;;;2.47;;
13805;SDS011;6974;53.606;9.872;2023-11-19T03:40:17;3.00;;;2.80;;
13805;SDS011;6974;53.606;9.872;2023-11-19T03:42:44;2.67;;;2.47;;
13805;SDS011;6974;53.606;9.872;2023-11-19T03:45:11;3.90;;;3.30;;
13805;SDS011;6974;53.606;9.872;2023-11-19T03:47:38;2.87;;;2.67;;
13805;SDS011;6974;53.606;9.872;2023-11-19T03:50:04;2.93;;;2.73;;
13805;SDS011;6974;53.606;9.872;2023-11-19T03:52:33;3.23;;;2.73;;
13805;SDS011;6974;53.606;9.872;2023-11-19T03:55:01;3.20;;;2.93;;
13805;SDS011;6974;53.606;9.872;2023-11-19T03:57:29;3.37;;;3.07;;
13805;SDS011;6974;53.606;9.872;2023-11-19T03:59:55;3.17;;;2.97;;
13805;SDS011;6974;53.606;9.872;2023-11-19T04:02:23;3.83;;;3.53;;
13805;SDS011;6974;53.606;9.872;2023-11-19T04:04:52;4.40;;;4.00;;
13805;SDS011;6974;53.606;9.872;2023-11-19T04:07:20;4.47;;;4.07;;
13805;SDS011;6974;53.606;9.872;2023-11-19T04:09:47;4.93;;;4.50;;
13805;SDS011;6974;53.606;9.872;2023-11-19T04:12:15;4.70;;;4.30;;
13805;SDS011;6974;53.606;9.872;2023-11-19T04:14:42;6.13;;;4.97;;
13805;SDS011;6974;53.606;9.872;2023-11-19T04:17:09;5.50;;;4.97;;
13805;SDS011;6974;53.606;9.872;2023-11-19T04:19:36;6.60;;;5.03;;
13805;SDS011;6974;53.606;9.872;2023-11-19T04:22:04;7.63;;;5.60;;
13805;SDS011;6974;53.606;9.872;2023-11-19T04:24:31;6.30;;;5.70;;
13805;SDS011;6974;53.606;9.872;2023-11-19T04:26:58;6.67;;;6.07;;
13805;SDS011;6974;53.606;9.872;2023-11-19T04:29:26;7.03;;;6.33;;
13805;SDS011;6974;53.606;9.872;2023-11-19T04:31:53;7.17;;;6.47;;
13805;SDS011;6974;53.606;9.872;2023-11-19T04:34:19;9.60;;;7.07;;
13805;SDS011;6974;53.606;9.872;2023-11-19T04:36:46;7.70;;;6.57;;
13805;SDS011;6974;53.606;9.872;2023-11-19T04:39:14;8.40;;;6.87;;
13805;SDS011;6974;53.606;9.872;2023-11-19T04:41:47;8.80;;;7.87;;
13805;SDS011;6974;53.606;9.872;2023-11-19T04:44:15;9.50;;;8.50;;
13805;SDS011;6974;53.606;9.872;2023-11-19T04:46:44;9.63;;;8.63;;
13805;SDS011;6974;53.606;9.872;2023-11-19T04:49:11;10.43;;;8.80;;
13805;SDS011;6974;53.606;9.872;2023-11-19T04:51:39;13.63;;;9.80;;
13805;SDS011;6974;53.606;9.872;2023-11-19T04:54:06;13.97;;;10.20;;
13805;SDS011;6974;53.606;9.872;2023-11-19T04:56:34;14.93;;;10.83;;
13805;SDS011;6974;53.606;9.872;2023-11-19T04:59:01;17.80;;;11.97;;
13805;SDS011;6974;53.606;9.872;2023-11-19T05:01:28;13.07;;;11.27;;
13805;SDS011;6974;53.606;9.872;2023-11-19T05:03:57;18.27;;;12.90;;
13805;SDS011;6974;53.606;9.872;2023-11-19T05:06:25;18.77;;;13.33;;
13805;SDS011;6974;53.606;9.872;2023-11-19T05:08:53;16.90;;;12.97;;
13805;SDS011;6974;53.606;9.872;2023-11-19T05:11:20;19.07;;;14.60;;
13805;SDS011;6974;53.606;9.872;2023-11-19T05:13:47;21.87;;;15.37;;
13805;SDS011;6974;53.606;9.872;2023-11-19T05:16:15;21.37;;;15.30;;
13805;SDS011;6974;53.606;9.872;2023-11-19T05:18:42;21.67;;;16.40;;
13805;SDS011;6974;53.606;9.872;2023-11-19T05:21:11;22.17;;;17.23;;
13805;SDS011;6974;53.606;9.872;2023-11-19T05:23:37;24.43;;;17.20;;
13805;SDS011;6974;53.606;9.872;2023-11-19T05:26:06;26.40;;;19.07;;
13805;SDS011;6974;53.606;9.872;2023-11-19T05:28:33;27.03;;;18.57;;
13805;SDS011;6974;53.606;9.872;2023-11-19T05:31:00;30.13;;;18.60;;
13805;SDS011;6974;53.606;9.872;2023-11-19T05:33:27;26.93;;;18.03;;
13805;SDS011;6974;53.606;9.872;2023-11-19T05:35:54;25.33;;;19.70;;
13805;SDS011;6974;53.606;9.872;2023-11-19T05:38:23;23.37;;;18.63;;
13805;SDS011;6974;53.606;9.872;2023-11-19T05:40:50;29.00;;;18.80;;
13805;SDS011;6974;53.606;9.872;2023-11-19T05:43:17;27.97;;;20.00;;
13805;SDS011;6974;53.606;9.872;2023-11-19T05:45:43;26.33;;;19.80;;
13805;SDS011;6974;53.606;9.872;2023-11-19T05:48:10;29.90;;;18.83;;
13805;SDS011;6974;53.606;9.872;2023-11-19T05:50:37;28.23;;;20.50;;
13805;SDS011;6974;53.606;9.872;2023-11-19T05:53:04;31.20;;;19.63;;
13805;SDS011;6974;53.606;9.872;2023-11-19T05:55:36;28.27;;;18.90;;
13805;SDS011;6974;53.606;9.872;2023-11-19T05:58:10;35.17;;;19.73;;
13805;SDS011;6974;53.606;9.872;2023-11-19T06:00:38;33.37;;;19.43;;
13805;SDS011;6974;53.606;9.872;2023-11-19T06:03:05;30.13;;;18.83;;
13805;SDS011;6974;53.606;9.872;2023-11-19T06:05:33;31.37;;;19.07;;
13805;SDS011;6974;53.606;9.872;2023-11-19T06:07:59;32.33;;;19.87;;
13805;SDS011;6974;53.606;9.872;2023-11-19T06:10:26;35.60;;;18.07;;
13805;SDS011;6974;53.606;9.872;2023-11-19T06:12:57;33.60;;;18.67;;
13805;SDS011;6974;53.606;9.872;2023-11-19T06:15:24;34.13;;;17.93;;
13805;SDS011;6974;53.606;9.872;2023-11-19T06:17:52;33.30;;;17.53;;
13805;SDS011;6974;53.606;9.872;2023-11-19T06:20:19;40.57;;;17.87;;
13805;SDS011;6974;53.606;9.872;2023-11-19T06:22:46;29.57;;;16.40;;
13805;SDS011;6974;53.606;9.872;2023-11-19T06:25:13;35.63;;;17.00;;
13805;SDS011;6974;53.606;9.872;2023-11-19T06:27:40;31.47;;;16.80;;
13805;SDS011;6974;53.606;9.872;2023-11-19T06:30:09;39.93;;;17.00;;
13805;SDS011;6974;53.606;9.872;2023-11-19T06:32:37;33.93;;;14.80;;
13805;SDS011;6974;53.606;9.872;2023-11-19T06:35:04;26.50;;;13.70;;
13805;SDS011;6974;53.606;9.872;2023-11-19T06:37:31;33.17;;;13.80;;
13805;SDS011;6974;53.606;9.872;2023-11-19T06:39:58;32.27;;;13.47;;
13805;SDS011;6974;53.606;9.872;2023-11-19T06:42:25;33.27;;;13.03;;
13805;SDS011;6974;53.606;9.872;2023-11-19T06:44:52;30.73;;;12.40;;
13805;SDS011;6974;53.606;9.872;2023-11-19T06:47:20;32.73;;;12.63;;
13805;SDS011;6974;53.606;9.872;2023-11-19T06:49:47;35.83;;;13.07;;
13805;SDS011;6974;53.606;9.872;2023-11-19T06:52:14;28.60;;;11.43;;
13805;SDS011;6974;53.606;9.872;2023-11-19T06:54:42;38.07;;;12.43;;
13805;SDS011;6974;53.606;9.872;2023-11-19T06:57:10;35.47;;;11.40;;
13805;SDS011;6974;53.606;9.872;2023-11-19T06:59:37;30.93;;;11.83;;
13805;SDS011;6974;53.606;9.872;2023-11-19T07:02:04;29.83;;;11.23;;
13805;SDS011;6974;53.606;9.872;2023-11-19T07:04:32;45.23;;;12.50;;
13805;SDS011;6974;53.606;9.872;2023-11-19T07:06:59;31.10;;;11.33;;
13805;SDS011;6974;53.606;9.872;2023-11-19T07:09:26;32.50;;;10.27;;
13805;SDS011;6974;53.606;9.872;2023-11-19T07:11:53;31.60;;;11.13;;
13805;SDS011;6974;53.606;9.872;2023-11-19T07:14:20;29.40;;;10.00;;
13805;SDS011;6974;53.606;9.872;2023-11-19T07:16:48;36.47;;;10.50;;
13805;SDS011;6974;53.606;9.872;2023-11-19T07:19:15;26.73;;;8.90;;
13805;SDS011;6974;53.606;9.872;2023-11-19T07:21:44;33.33;;;8.50;;
13805;SDS011;6974;53.606;9.872;2023-11-19T07:24:11;27.73;;;8.33;;
13805;SDS011;6974;53.606;9.872;2023-11-19T07:26:40;35.63;;;7.97;;
13805;SDS011;6974;53.606;9.872;2023-11-19T07:29:08;32.03;;;7.50;;
13805;SDS011;6974;53.606;9.872;2023-11-19T07:31:35;26.87;;;7.30;;
13805;SDS011;6974;53.606;9.872;2023-11-19T07:34:02;33.20;;;7.00;;
13805;SDS011;6974;53.606;9.872;2023-11-19T07:36:30;27.90;;;6.73;;
13805;SDS011;6974;53.606;9.872;2023-11-19T07:38:58;31.63;;;7.43;;
13805;SDS011;6974;53.606;9.872;2023-11-19T07:41:25;26.23;;;6.53;;
13805;SDS011;6974;53.606;9.872;2023-11-19T07:43:52;33.93;;;8.47;;
13805;SDS011;6974;53.606;9.872;2023-11-19T07:46:19;27.87;;;6.23;;
13805;SDS011;6974;53.606;9.872;2023-11-19T07:48:46;30.27;;;6.70;;
13805;SDS011;6974;53.606;9.872;2023-11-19T07:51:13;33.90;;;7.20;;
13805;SDS011;6974;53.606;9.872;2023-11-19T07:53:40;28.43;;;7.07;;
13805;SDS011;6974;53.606;9.872;2023-11-19T07:56:09;35.70;;;7.10;;
13805;SDS011;6974;53.606;9.872;2023-11-19T07:58:36;24.90;;;6.03;;
13805;SDS011;6974;53.606;9.872;2023-11-19T08:01:03;34.27;;;6.80;;
13805;SDS011;6974;53.606;9.872;2023-11-19T08:03:31;32.37;;;7.00;;
13805;SDS011;6974;53.606;9.872;2023-11-19T08:05:59;28.60;;;7.23;;
13805;SDS011;6974;53.606;9.872;2023-11-19T08:08:26;34.20;;;7.53;;
13805;SDS011;6974;53.606;9.872;2023-11-19T08:10:54;27.80;;;6.97;;
13805;SDS011;6974;53.606;9.872;2023-11-19T08:13:23;43.13;;;8.70;;
13805;SDS011;6974;53.606;9.872;2023-11-19T08:15:50;27.33;;;6.50;;
13805;SDS011;6974;53.606;9.872;2023-11-19T08:18:17;26.13;;;7.87;;
13805;SDS011;6974;53.606;9.872;2023-11-19T08:20:44;36.87;;;6.80;;
13805;SDS011;6974;53.606;9.872;2023-11-19T08:23:14;39.53;;;7.33;;
13805;SDS011;6974;53.606;9.872;2023-11-19T08:25:40;28.90;;;7.07;;
13805;SDS011;6974;53.606;9.872;2023-11-19T08:28:07;31.03;;;7.33;;
13805;SDS011;6974;53.606;9.872;2023-11-19T08:30:35;27.90;;;6.80;;
13805;SDS011;6974;53.606;9.872;2023-11-19T08:33:02;31.80;;;7.53;;
13805;SDS011;6974;53.606;9.872;2023-11-19T08:35:30;32.67;;;6.60;;
13805;SDS011;6974;53.606;9.872;2023-11-19T08:37:57;30.17;;;6.93;;
13805;SDS011;6974;53.606;9.872;2023-11-19T08:40:25;26.33;;;6.00;;
13805;SDS011;6974;53.606;9.872;2023-11-19T08:42:52;21.70;;;6.27;;
13805;SDS011;6974;53.606;9.872;2023-11-19T08:45:18;27.97;;;7.13;;
13805;SDS011;6974;53.606;9.872;2023-11-19T08:47:47;32.87;;;7.23;;
13805;SDS011;6974;53.606;9.872;2023-11-19T08:50:14;36.63;;;7.10;;
13805;SDS011;6974;53.606;9.872;2023-11-19T08:52:40;25.47;;;5.93;;
13805;SDS011;6974;53.606;9.872;2023-11-19T08:55:07;26.90;;;6.67;;
13805;SDS011;6974;53.606;9.872;2023-11-19T08:57:35;31.17;;;7.20;;
13805;SDS011;6974;53.606;9.872;2023-11-19T09:00:02;30.87;;;6.50;;
13805;SDS011;6974;53.606;9.872;2023-11-19T09:02:29;33.00;;;7.27;;
13805;SDS011;6974;53.606;9.872;2023-11-19T09:04:58;27.50;;;6.70;;
13805;SDS011;6974;53.606;9.872;2023-11-19T09:07:25;33.93;;;6.63;;
13805;SDS011;6974;53.606;9.872;2023-11-19T09:09:52;32.10;;;7.57;;
13805;SDS011;6974;53.606;9.872;2023-11-19T09:12:19;30.93;;;8.43;;
13805;SDS011;6974;53.606;9.872;2023-11-19T09:14:46;31.33;;;7.90;;
13805;SDS011;6974;53.606;9.872;2023-11-19T09:17:14;32.53;;;7.90;;
13805;SDS011;6974;53.606;9.872;2023-11-19T09:19:42;31.47;;;7.07;;
13805;SDS011;6974;53.606;9.872;2023-11-19T09:22:10;30.37;;;6.77;;
13805;SDS011;6974;53.606;9.872;2023-11-19T09:24:37;35.13;;;7.53;;
13805;SDS011;6974;53.606;9.872;2023-11-19T09:27:04;33.30;;;7.40;;
13805;SDS011;6974;53.606;9.872;2023-11-19T09:29:31;28.93;;;7.70;;
13805;SDS011;6974;53.606;9.872;2023-11-19T09:31:58;30.20;;;6.93;;
13805;SDS011;6974;53.606;9.872;2023-11-19T09:34:25;32.60;;;7.03;;
13805;SDS011;6974;53.606;9.872;2023-11-19T09:36:53;37.87;;;7.53;;
13805;SDS011;6974;53.606;9.872;2023-11-19T09:39:21;29.93;;;7.53;;
13805;SDS011;6974;53.606;9.872;2023-11-19T09:41:48;24.87;;;6.10;;
13805;SDS011;6974;53.606;9.872;2023-11-19T09:44:15;30.80;;;6.97;;
13805;SDS011;6974;53.606;9.872;2023-11-19T09:46:43;29.17;;;6.67;;
13805;SDS011;6974;53.606;9.872;2023-11-19T09:49:11;36.33;;;8.60;;
13805;SDS011;6974;53.606;9.872;2023-11-19T09:51:39;28.23;;;6.50;;
13805;SDS011;6974;53.606;9.872;2023-11-19T09:54:06;42.77;;;7.63;;
13805;SDS011;6974;53.606;9.872;2023-11-19T09:56:35;32.57;;;7.07;;
13805;SDS011;6974;53.606;9.872;2023-11-19T09:59:05;30.70;;;6.60;;
13805;SDS011;6974;53.606;9.872;2023-11-19T10:01:32;31.07;;;7.40;;
13805;SDS011;6974;53.606;9.872;2023-11-19T10:04:00;33.00;;;8.00;;
13805;SDS011;6974;53.606;9.872;2023-11-19T10:06:27;31.20;;;7.33;;
13805;SDS011;6974;53.606;9.872;2023-11-19T10:08:54;32.87;;;7.00;;
13805;SDS011;6974;53.606;9.872;2023-11-19T10:11:21;24.63;;;7.37;;
13805;SDS011;6974;53.606;9.872;2023-11-19T10:13:50;26.80;;;6.57;;
13805;SDS011;6974;53.606;9.872;2023-11-19T10:16:18;28.00;;;6.37;;
13805;SDS011;6974;53.606;9.872;2023-11-19T10:18:45;27.90;;;6.80;;
13805;SDS011;6974;53.606;9.872;2023-11-19T10:21:12;25.67;;;6.57;;
13805;SDS011;6974;53.606;9.872;2023-11-19T10:23:48;27.17;;;6.40;;
13805;SDS011;6974;53.606;9.872;2023-11-19T10:26:16;32.20;;;7.10;;
13805;SDS011;6974;53.606;9.872;2023-11-19T10:28:43;31.40;;;7.20;;
13805;SDS011;6974;53.606;9.872;2023-11-19T10:31:13;29.77;;;8.17;;
13805;SDS011;6974;53.606;9.872;2023-11-19T10:33:40;34.40;;;7.70;;
13805;SDS011;6974;53.606;9.872;2023-11-19T10:36:07;34.53;;;7.60;;
13805;SDS011;6974;53.606;9.872;2023-11-19T10:38:34;28.07;;;6.97;;
13805;SDS011;6974;53.606;9.872;2023-11-19T10:41:01;29.37;;;6.43;;
13805;SDS011;6974;53.606;9.872;2023-11-19T10:43:29;35.13;;;7.30;;
13805;SDS011;6974;53.606;9.872;2023-11-19T10:46:08;35.20;;;7.67;;
13805;SDS011;6974;53.606;9.872;2023-11-19T10:48:38;37.63;;;7.43;;
13805;SDS011;6974;53.606;9.872;2023-11-19T10:51:05;28.00;;;6.70;;
13805;SDS011;6974;53.606;9.872;2023-11-19T10:53:33;29.00;;;7.07;;
13805;SDS011;6974;53.606;9.872;2023-11-19T10:56:02;27.07;;;6.50;;
13805;SDS011;6974;53.606;9.872;2023-11-19T10:58:33;29.03;;;7.20;;
13805;SDS011;6974;53.606;9.872;2023-11-19T11:01:04;33.53;;;7.57;;
13805;SDS011;6974;53.606;9.872;2023-11-19T11:03:40;30.33;;;6.30;;
13805;SDS011;6974;53.606;9.872;2023-11-19T11:06:09;37.43;;;7.40;;
13805;SDS011;6974;53.606;9.872;2023-11-19T11:08:36;38.03;;;7.60;;
13805;SDS011;6974;53.606;9.872;2023-11-19T11:11:05;31.00;;;6.80;;
13805;SDS011;6974;53.606;9.872;2023-11-19T11:13:33;27.67;;;6.93;;
13805;SDS011;6974;53.606;9.872;2023-11-19T11:16:01;33.80;;;7.33;;
13805;SDS011;6974;53.606;9.872;2023-11-19T11:18:32;24.97;;;6.93;;
13805;SDS011;6974;53.606;9.872;2023-11-19T11:21:02;38.30;;;7.93;;
13805;SDS011;6974;53.606;9.872;2023-11-19T11:23:39;25.77;;;6.23;;
13805;SDS011;6974;53.606;9.872;2023-11-19T11:26:29;28.07;;;6.90;;
13805;SDS011;6974;53.606;9.872;2023-11-19T11:29:14;23.40;;;6.10;;
13805;SDS011;6974;53.606;9.872;2023-11-19T11:31:48;29.60;;;6.80;;
13805;SDS011;6974;53.606;9.872;2023-11-19T11:34:31;27.97;;;7.23;;
13805;SDS011;6974;53.606;9.872;2023-11-19T11:37:15;26.10;;;7.33;;
13805;SDS011;6974;53.606;9.872;2023-11-19T11:39:45;27.60;;;7.60;;
13805;SDS011;6974;53.606;9.872;2023-11-19T11:42:32;29.30;;;6.47;;
13805;SDS011;6974;53.606;9.872;2023-11-19T11:45:02;29.80;;;7.37;;
13805;SDS011;6974;53.606;9.872;2023-11-19T11:50:53;23.20;;;6.27;;
13805;SDS011;6974;53.606;9.872;2023-11-19T11:53:24;26.77;;;6.23;;
13805;SDS011;6974;53.606;9.872;2023-11-19T11:55:52;30.97;;;7.17;;
13805;SDS011;6974;53.606;9.872;2023-11-19T11:58:20;30.27;;;7.20;;
13805;SDS011;6974;53.606;9.872;2023-11-19T12:00:47;30.50;;;6.67;;
13805;SDS011;6974;53.606;9.872;2023-11-19T12:03:16;27.00;;;6.33;;
13805;SDS011;6974;53.606;9.872;2023-11-19T12:05:47;28.20;;;7.23;;
13805;SDS011;6974;53.606;9.872;2023-11-19T12:08:14;29.07;;;7.47;;
13805;SDS011;6974;53.606;9.872;2023-11-19T12:10:44;30.57;;;7.13;;
13805;SDS011;6974;53.606;9.872;2023-11-19T12:13:12;27.60;;;7.27;;
13805;SDS011;6974;53.606;9.872;2023-11-19T12:18:33;30.87;;;7.53;;
13805;SDS011;6974;53.606;9.872;2023-11-19T12:21:00;25.10;;;6.57;;
13805;SDS011;6974;53.606;9.872;2023-11-19T12:23:28;28.43;;;6.37;;
13805;SDS011;6974;53.606;9.872;2023-11-19T12:25:57;28.90;;;7.10;;
13805;SDS011;6974;53.606;9.872;2023-11-19T12:28:24;29.60;;;5.60;;
13805;SDS011;6974;53.606;9.872;2023-11-19T12:30:52;24.57;;;5.70;;
13805;SDS011;6974;53.606;9.872;2023-11-19T12:33:19;28.53;;;6.97;;
13805;SDS011;6974;53.606;9.872;2023-11-19T12:35:46;25.13;;;6.37;;
13805;SDS011;6974;53.606;9.872;2023-11-19T12:38:18;24.30;;;5.77;;
13805;SDS011;6974;53.606;9.872;2023-11-19T12:40:46;32.60;;;6.10;;
13805;SDS011;6974;53.606;9.872;2023-11-19T12:43:22;23.70;;;6.10;;
13805;SDS011;6974;53.606;9.872;2023-11-19T12:45:49;21.43;;;5.33;;
13805;SDS011;6974;53.606;9.872;2023-11-19T12:48:15;30.50;;;6.67;;
13805;SDS011;6974;53.606;9.872;2023-11-19T12:53:27;28.10;;;6.70;;
13805;SDS011;6974;53.606;9.872;2023-11-19T12:55:54;26.57;;;6.87;;
13805;SDS011;6974;53.606;9.872;2023-11-19T12:58:29;30.73;;;6.67;;
13805;SDS011;6974;53.606;9.872;2023-11-19T13:01:00;33.33;;;6.77;;
13805;SDS011;6974;53.606;9.872;2023-11-19T13:03:31;20.17;;;5.80;;
13805;SDS011;6974;53.606;9.872;2023-11-19T13:06:02;29.10;;;6.07;;
13805;SDS011;6974;53.606;9.872;2023-11-19T13:08:35;28.87;;;6.40;;
13805;SDS011;6974;53.606;9.872;2023-11-19T13:11:04;32.13;;;6.57;;
13805;SDS011;6974;53.606;9.872;2023-11-19T13:13:33;29.73;;;6.33;;
13805;SDS011;6974;53.606;9.872;2023-11-19T13:16:19;25.87;;;6.47;;
13805;SDS011;6974;53.606;9.872;2023-11-19T13:18:47;30.83;;;6.63;;
13805;SDS011;6974;53.606;9.872;2023-11-19T13:21:13;25.80;;;7.63;;
13805;SDS011;6974;53.606;9.872;2023-11-19T13:23:40;26.40;;;6.07;;
13805;SDS011;6974;53.606;9.872;2023-11-19T13:26:08;22.63;;;6.60;;
13805;SDS011;6974;53.606;9.872;2023-11-19T13:28:36;27.17;;;6.43;;
13805;SDS011;6974;53.606;9.872;2023-11-19T13:31:03;23.33;;;6.40;;
13805;SDS011;6974;53.606;9.872;2023-11-19T13:33:31;26.77;;;6.83;;
13805;SDS011;6974;53.606;9.872;2023-11-19T13:35:58;23.63;;;6.13;;
13805;SDS011;6974;53.606;9.872;2023-11-19T13:38:26;23.23;;;6.43;;
13805;SDS011;6974;53.606;9.872;2023-11-19T13:40:53;20.90;;;5.50;;
13805;SDS011;6974;53.606;9.872;2023-11-19T13:43:20;28.90;;;6.50;;
13805;SDS011;6974;53.606;9.872;2023-11-19T13:45:49;25.00;;;6.27;;
13805;SDS011;6974;53.606;9.872;2023-11-19T13:48:18;18.37;;;5.13;;
13805;SDS011;6974;53.606;9.872;2023-11-19T13:50:45;28.47;;;6.73;;
13805;SDS011;6974;53.606;9.872;2023-11-19T13:53:12;25.10;;;5.77;;
13805;SDS011;6974;53.606;9.872;2023-11-19T13:55:39;28.73;;;5.60;;
13805;SDS011;6974;53.606;9.872;2023-11-19T13:58:06;25.60;;;6.57;;
13805;SDS011;6974;53.606;9.872;2023-11-19T14:00:32;27.87;;;6.10;;
13805;SDS011;6974;53.606;9.872;2023-11-19T14:03:01;23.33;;;6.17;;
13805;SDS011;6974;53.606;9.872;2023-11-19T14:05:28;28.73;;;6.83;;
13805;SDS011;6974;53.606;9.872;2023-11-19T14:07:55;23.03;;;5.60;;
13805;SDS011;6974;53.606;9.872;2023-11-19T14:10:22;28.33;;;6.17;;
13805;SDS011;6974;53.606;9.872;2023-11-19T14:12:49;24.70;;;6.10;;
13805;SDS011;6974;53.606;9.872;2023-11-19T14:15:16;23.83;;;6.57;;
13805;SDS011;6974;53.606;9.872;2023-11-19T14:17:43;26.57;;;5.90;;
13805;SDS011;6974;53.606;9.872;2023-11-19T14:20:11;26.30;;;6.30;;
13805;SDS011;6974;53.606;9.872;2023-11-19T14:22:38;25.20;;;6.80;;
13805;SDS011;6974;53.606;9.872;2023-11-19T14:25:06;26.70;;;6.13;;
13805;SDS011;6974;53.606;9.872;2023-11-19T14:27:35;31.27;;;7.10;;
13805;SDS011;6974;53.606;9.872;2023-11-19T14:30:03;24.60;;;6.40;;
13805;SDS011;6974;53.606;9.872;2023-11-19T14:32:31;20.47;;;5.33;;
13805;SDS011;6974;53.606;9.872;2023-11-19T14:34:58;24.43;;;7.07;;
13805;SDS011;6974;53.606;9.872;2023-11-19T14:37:26;27.50;;;5.77;;
13805;SDS011;6974;53.606;9.872;2023-11-19T14:39:53;24.57;;;6.90;;
13805;SDS011;6974;53.606;9.872;2023-11-19T14:42:20;31.37;;;6.80;;
13805;SDS011;6974;53.606;9.872;2023-11-19T14:44:47;29.17;;;6.80;;
13805;SDS011;6974;53.606;9.872;2023-11-19T14:47:14;14.73;;;4.43;;
13805;SDS011;6974;53.606;9.872;2023-11-19T14:49:41;10.83;;;3.60;;
13805;SDS011;6974;53.606;9.872;2023-11-19T14:52:08;10.80;;;3.60;;
13805;SDS011;6974;53.606;9.872;2023-11-19T14:54:36;6.13;;;2.63;;
13805;SDS011;6974;53.606;9.872;2023-11-19T14:57:03;13.63;;;3.27;;
13805;SDS011;6974;53.606;9.872;2023-11-19T14:59:31;6.33;;;2.60;;
13805;SDS011;6974;53.606;9.872;2023-11-19T15:01:58;9.00;;;2.47;;
13805;SDS011;6974;53.606;9.872;2023-11-19T15:04:26;6.33;;;2.10;;